sensor_id;sensor_type;location;lat;lon;timestamp;pressure;altitude;pressure_sealevel;temperature;humidity
20656;BME280;10487;53.320;8.672;2023-02-28T00:02:50;102901.47;;;2.05;54.19
20656;BME280;10487;53.320;8.672;2023-02-28T00:05:52;102894.44;;;2.03;54.25
20656;BME280;10487;53.320;8.672;2023-02-28T00:08:53;102898.84;;;2.01;54.20
20656;BME280;10487;53.320;8.672;2023-02-28T00:11:55;102895.34;;;2.00;54.37
20656;BME280;10487;53.320;8.672;2023-02-28T00:14:57;102888.34;;;1.96;54.27
20656;BME280;10487;53.320;8.672;2023-02-28T00:17:58;102902.41;;;1.94;54.28
20656;BME280;10487;53.320;8.672;2023-02-28T00:21:00;102888.38;;;1.92;54.64
20656;BME280;10487;53.320;8.672;2023-02-28T00:24:02;102898.91;;;1.89;54.32
20656;BME280;10487;53.320;8.672;2023-02-28T00:27:04;102904.19;;;1.86;54.34
20656;BME280;10487;53.320;8.672;2023-02-28T00:30:08;102906.84;;;1.78;54.13
20656;BME280;10487;53.320;8.672;2023-02-28T00:33:10;102905.13;;;1.71;54.51
20656;BME280;10487;53.320;8.672;2023-02-28T00:36:12;102905.13;;;1.67;54.96
20656;BME280;10487;53.320;8.672;2023-02-28T00:39:13;102899.88;;;1.67;54.60
20656;BME280;10487;53.320;8.672;2023-02-28T00:42:15;102893.72;;;1.66;54.58
20656;BME280;10487;53.320;8.672;2023-02-28T00:45:17;102903.38;;;1.66;54.74
20656;BME280;10487;53.320;8.672;2023-02-28T00:48:18;102913.00;;;1.65;54.80
20656;BME280;10487;53.320;8.672;2023-02-28T00:51:20;102907.75;;;1.65;55.01
20656;BME280;10487;53.320;8.672;2023-02-28T00:54:22;102909.53;;;1.62;54.74
20656;BME280;10487;53.320;8.672;2023-02-28T00:57:23;102917.44;;;1.57;54.85
20656;BME280;10487;53.320;8.672;2023-02-28T01:00:25;102917.44;;;1.52;54.91
20656;BME280;10487;53.320;8.672;2023-02-28T01:03:26;102924.44;;;1.50;55.00
20656;BME280;10487;53.320;8.672;2023-02-28T01:06:28;102916.56;;;1.47;54.66
20656;BME280;10487;53.320;8.672;2023-02-28T01:09:30;102923.59;;;1.45;55.03
20656;BME280;10487;53.320;8.672;2023-02-28T01:12:32;102926.22;;;1.44;54.80
20656;BME280;10487;53.320;8.672;2023-02-28T01:15:33;102920.97;;;1.42;55.06
20656;BME280;10487;53.320;8.672;2023-02-28T01:18:36;102917.47;;;1.42;55.05
20656;BME280;10487;53.320;8.672;2023-02-28T01:21:38;102923.63;;;1.42;54.70
20656;BME280;10487;53.320;8.672;2023-02-28T01:24:39;102918.34;;;1.42;55.07
20656;BME280;10487;53.320;8.672;2023-02-28T01:27:41;102924.47;;;1.43;55.02
20656;BME280;10487;53.320;8.672;2023-02-28T01:30:42;102916.56;;;1.43;54.90
20656;BME280;10487;53.320;8.672;2023-02-28T01:34:04;102920.09;;;1.43;54.79
20656;BME280;10487;53.320;8.672;2023-02-28T01:37:06;102916.59;;;1.44;54.79
20656;BME280;10487;53.320;8.672;2023-02-28T01:40:08;102914.81;;;1.43;55.00
20656;BME280;10487;53.320;8.672;2023-02-28T01:43:24;102913.97;;;1.41;54.91
20656;BME280;10487;53.320;8.672;2023-02-28T01:46:26;102900.78;;;1.41;54.92
20656;BME280;10487;53.320;8.672;2023-02-28T01:49:27;102905.19;;;1.42;54.89
20656;BME280;10487;53.320;8.672;2023-02-28T01:52:30;102912.22;;;1.42;55.12
20656;BME280;10487;53.320;8.672;2023-02-28T01:55:33;102911.31;;;1.41;54.79
20656;BME280;10487;53.320;8.672;2023-02-28T01:58:36;102906.94;;;1.40;55.15
20656;BME280;10487;53.320;8.672;2023-02-28T02:01:38;102900.78;;;1.38;55.03
20656;BME280;10487;53.320;8.672;2023-02-28T02:04:48;102900.81;;;1.37;54.87
20656;BME280;10487;53.320;8.672;2023-02-28T02:07:54;102906.97;;;1.37;55.03
20656;BME280;10487;53.320;8.672;2023-02-28T02:11:00;102909.59;;;1.37;54.82
20656;BME280;10487;53.320;8.672;2023-02-28T02:17:42;102905.19;;;1.36;54.97
20656;BME280;10487;53.320;8.672;2023-02-28T02:21:15;102904.31;;;1.34;55.27
20656;BME280;10487;53.320;8.672;2023-02-28T02:34:39;102890.31;;;1.26;54.83
20656;BME280;10487;53.320;8.672;2023-02-28T02:37:48;102894.69;;;1.23;55.09
20656;BME280;10487;53.320;8.672;2023-02-28T02:44:58;102894.69;;;1.15;54.99
20656;BME280;10487;53.320;8.672;2023-02-28T02:47:58;102901.72;;;1.12;55.10
20656;BME280;10487;53.320;8.672;2023-02-28T02:51:05;102897.34;;;1.09;55.08
20656;BME280;10487;53.320;8.672;2023-02-28T02:54:16;102899.09;;;1.07;54.96
20656;BME280;10487;53.320;8.672;2023-02-28T02:57:53;102898.22;;;1.07;55.02
20656;BME280;10487;53.320;8.672;2023-02-28T03:00:59;102896.47;;;1.03;55.20
20656;BME280;10487;53.320;8.672;2023-02-28T03:04:12;102891.19;;;0.98;55.24
20656;BME280;10487;53.320;8.672;2023-02-28T03:07:16;102892.97;;;0.95;55.25
20656;BME280;10487;53.320;8.672;2023-02-28T03:13:51;102890.34;;;0.90;55.17
20656;BME280;10487;53.320;8.672;2023-02-28T03:17:03;102890.31;;;0.88;55.49
20656;BME280;10487;53.320;8.672;2023-02-28T03:20:39;102896.47;;;0.88;55.33
20656;BME280;10487;53.320;8.672;2023-02-28T03:24:00;102897.34;;;0.85;55.39
20656;BME280;10487;53.320;8.672;2023-02-28T03:27:10;102905.22;;;0.85;55.54
20656;BME280;10487;53.320;8.672;2023-02-28T03:30:35;102905.22;;;0.85;55.53
20656;BME280;10487;53.320;8.672;2023-02-28T03:33:58;102901.72;;;0.84;55.19
20656;BME280;10487;53.320;8.672;2023-02-28T03:37:07;102911.31;;;0.84;55.59
20656;BME280;10487;53.320;8.672;2023-02-28T03:40:19;102913.13;;;0.85;55.43
20656;BME280;10487;53.320;8.672;2023-02-28T03:43:26;102912.22;;;0.86;55.58
20656;BME280;10487;53.320;8.672;2023-02-28T03:46:33;102920.09;;;0.86;55.25
20656;BME280;10487;53.320;8.672;2023-02-28T03:49:45;102917.44;;;0.83;55.34
20656;BME280;10487;53.320;8.672;2023-02-28T03:53:16;102913.97;;;0.82;55.33
20656;BME280;10487;53.320;8.672;2023-02-28T03:56:23;102915.72;;;0.80;55.38
20656;BME280;10487;53.320;8.672;2023-02-28T03:59:34;102909.56;;;0.80;55.34
20656;BME280;10487;53.320;8.672;2023-02-28T04:02:38;102913.97;;;0.78;55.24
20656;BME280;10487;53.320;8.672;2023-02-28T04:05:54;102907.81;;;0.79;55.63
20656;BME280;10487;53.320;8.672;2023-02-28T04:08:57;102911.31;;;0.76;55.31
20656;BME280;10487;53.320;8.672;2023-02-28T04:11:58;102906.94;;;0.77;55.38
20656;BME280;10487;53.320;8.672;2023-02-28T04:15:00;102905.16;;;0.76;55.26
20656;BME280;10487;53.320;8.672;2023-02-28T04:18:02;102918.31;;;0.76;55.61
20656;BME280;10487;53.320;8.672;2023-02-28T04:21:04;102912.19;;;0.75;55.66
20656;BME280;10487;53.320;8.672;2023-02-28T04:24:08;102920.94;;;0.74;55.53
20656;BME280;10487;53.320;8.672;2023-02-28T04:27:10;102923.56;;;0.70;55.71
20656;BME280;10487;53.320;8.672;2023-02-28T04:30:12;102923.56;;;0.64;55.66
20656;BME280;10487;53.320;8.672;2023-02-28T04:33:13;102921.81;;;0.60;55.76
20656;BME280;10487;53.320;8.672;2023-02-28T04:36:15;102919.16;;;0.58;55.44
20656;BME280;10487;53.320;8.672;2023-02-28T04:39:19;102923.53;;;0.55;55.57
20656;BME280;10487;53.320;8.672;2023-02-28T04:42:21;102922.66;;;0.51;55.63
20656;BME280;10487;53.320;8.672;2023-02-28T04:45:22;102920.91;;;0.50;55.76
20656;BME280;10487;53.320;8.672;2023-02-28T04:48:25;102922.66;;;0.48;55.70
20656;BME280;10487;53.320;8.672;2023-02-28T04:51:27;102912.13;;;0.47;55.59
20656;BME280;10487;53.320;8.672;2023-02-28T04:54:29;102910.41;;;0.47;55.80
20656;BME280;10487;53.320;8.672;2023-02-28T04:57:31;102917.41;;;0.48;55.93
20656;BME280;10487;53.320;8.672;2023-02-28T05:00:32;102915.63;;;0.49;55.85
20656;BME280;10487;53.320;8.672;2023-02-28T05:03:34;102925.28;;;0.47;55.58
20656;BME280;10487;53.320;8.672;2023-02-28T05:06:35;102922.66;;;0.45;55.53
20656;BME280;10487;53.320;8.672;2023-02-28T05:09:37;102929.66;;;0.40;55.60
20656;BME280;10487;53.320;8.672;2023-02-28T05:12:39;102923.47;;;0.34;55.83
20656;BME280;10487;53.320;8.672;2023-02-28T05:15:40;102929.59;;;0.31;55.80
20656;BME280;10487;53.320;8.672;2023-02-28T05:18:42;102936.59;;;0.28;55.87
20656;BME280;10487;53.320;8.672;2023-02-28T05:21:54;102935.72;;;0.24;55.55
20656;BME280;10487;53.320;8.672;2023-02-28T05:24:56;102927.84;;;0.22;56.06
20656;BME280;10487;53.320;8.672;2023-02-28T05:27:57;102932.19;;;0.22;55.92
20656;BME280;10487;53.320;8.672;2023-02-28T05:30:59;102935.69;;;0.21;55.85
20656;BME280;10487;53.320;8.672;2023-02-28T05:34:00;102933.94;;;0.18;55.82
20656;BME280;10487;53.320;8.672;2023-02-28T05:37:02;102930.44;;;0.19;55.96
20656;BME280;10487;53.320;8.672;2023-02-28T05:40:06;102934.81;;;0.22;56.02
20656;BME280;10487;53.320;8.672;2023-02-28T05:43:10;102934.88;;;0.37;56.61
20656;BME280;10487;53.320;8.672;2023-02-28T05:46:13;102943.78;;;0.89;56.61
20656;BME280;10487;53.320;8.672;2023-02-28T05:49:15;102942.91;;;1.01;56.05
20656;BME280;10487;53.320;8.672;2023-02-28T05:52:17;102936.75;;;0.99;55.95
20656;BME280;10487;53.320;8.672;2023-02-28T05:55:18;102940.28;;;0.92;55.66
20656;BME280;10487;53.320;8.672;2023-02-28T05:58:21;102947.28;;;0.86;55.96
20656;BME280;10487;53.320;8.672;2023-02-28T06:01:38;102931.47;;;0.79;55.72
20656;BME280;10487;53.320;8.672;2023-02-28T06:04:40;102935.84;;;0.75;56.07
20656;BME280;10487;53.320;8.672;2023-02-28T06:07:43;102937.59;;;0.72;55.88
20656;BME280;10487;53.320;8.672;2023-02-28T06:10:45;102941.97;;;0.67;55.98
20656;BME280;10487;53.320;8.672;2023-02-28T06:13:47;102949.84;;;0.62;55.86
20656;BME280;10487;53.320;8.672;2023-02-28T06:16:48;102942.78;;;0.54;55.75
20656;BME280;10487;53.320;8.672;2023-02-28T06:19:50;102945.44;;;0.48;55.84
20656;BME280;10487;53.320;8.672;2023-02-28T06:22:52;102955.91;;;0.40;55.87
20656;BME280;10487;53.320;8.672;2023-02-28T06:25:55;102952.38;;;0.32;55.82
20656;BME280;10487;53.320;8.672;2023-02-28T06:28:59;102958.44;;;0.23;55.88
20656;BME280;10487;53.320;8.672;2023-02-28T06:32:02;102950.56;;;0.19;55.94
20656;BME280;10487;53.320;8.672;2023-02-28T06:35:04;102961.06;;;0.17;55.76
20656;BME280;10487;53.320;8.672;2023-02-28T06:38:06;102959.31;;;0.15;55.85
20656;BME280;10487;53.320;8.672;2023-02-28T06:41:08;102962.81;;;0.11;55.63
20656;BME280;10487;53.320;8.672;2023-02-28T06:44:17;102968.06;;;0.11;55.75
20656;BME280;10487;53.320;8.672;2023-02-28T06:47:19;102972.44;;;0.10;55.87
20656;BME280;10487;53.320;8.672;2023-02-28T06:50:20;102962.81;;;0.12;55.89
20656;BME280;10487;53.320;8.672;2023-02-28T06:53:22;102971.56;;;0.13;55.92
20656;BME280;10487;53.320;8.672;2023-02-28T06:56:23;102969.81;;;0.13;55.74
20656;BME280;10487;53.320;8.672;2023-02-28T06:59:25;102987.31;;;0.08;55.65
20656;BME280;10487;53.320;8.672;2023-02-28T07:02:27;102985.53;;;0.06;55.93
20656;BME280;10487;53.320;8.672;2023-02-28T07:05:29;102975.88;;;0.06;55.91
20656;BME280;10487;53.320;8.672;2023-02-28T07:08:31;102981.19;;;0.14;56.12
20656;BME280;10487;53.320;8.672;2023-02-28T07:11:33;102987.34;;;0.22;56.22
20656;BME280;10487;53.320;8.672;2023-02-28T07:14:36;102994.41;;;0.32;55.91
20656;BME280;10487;53.320;8.672;2023-02-28T07:17:38;103004.94;;;0.44;55.73
20656;BME280;10487;53.320;8.672;2023-02-28T07:20:40;103000.63;;;0.57;55.62
20656;BME280;10487;53.320;8.672;2023-02-28T07:23:41;102998.91;;;0.74;55.68
20656;BME280;10487;53.320;8.672;2023-02-28T07:26:43;103006.00;;;0.87;55.73
20656;BME280;10487;53.320;8.672;2023-02-28T07:29:44;103006.91;;;1.00;55.48
20656;BME280;10487;53.320;8.672;2023-02-28T07:32:46;103010.41;;;1.12;55.44
20656;BME280;10487;53.320;8.672;2023-02-28T07:35:48;103010.44;;;1.39;55.77
20656;BME280;10487;53.320;8.672;2023-02-28T07:38:49;103006.91;;;1.54;55.37
20656;BME280;10487;53.320;8.672;2023-02-28T07:41:51;103006.03;;;1.58;55.15
20656;BME280;10487;53.320;8.672;2023-02-28T07:44:53;103012.19;;;1.62;55.36
20656;BME280;10487;53.320;8.672;2023-02-28T07:47:55;103006.00;;;1.66;55.01
20656;BME280;10487;53.320;8.672;2023-02-28T07:50:58;102999.88;;;1.71;55.10
20656;BME280;10487;53.320;8.672;2023-02-28T07:54:00;103006.00;;;1.81;55.29
20656;BME280;10487;53.320;8.672;2023-02-28T07:57:01;103008.63;;;1.91;55.04
20656;BME280;10487;53.320;8.672;2023-02-28T08:00:05;103011.25;;;1.99;54.94
20656;BME280;10487;53.320;8.672;2023-02-28T08:03:11;103007.72;;;2.04;55.01
20656;BME280;10487;53.320;8.672;2023-02-28T08:06:20;103003.31;;;2.08;55.24
20656;BME280;10487;53.320;8.672;2023-02-28T08:09:22;103001.53;;;2.08;54.97
20656;BME280;10487;53.320;8.672;2023-02-28T08:12:24;103012.88;;;2.36;55.74
20656;BME280;10487;53.320;8.672;2023-02-28T08:15:25;103014.53;;;2.52;55.39
20656;BME280;10487;53.320;8.672;2023-02-28T08:18:27;103011.91;;;2.55;55.29
20656;BME280;10487;53.320;8.672;2023-02-28T08:21:28;103019.81;;;2.55;55.18
20656;BME280;10487;53.320;8.672;2023-02-28T08:24:31;103011.91;;;2.55;55.21
20656;BME280;10487;53.320;8.672;2023-02-28T08:27:32;103012.78;;;2.54;55.16
20656;BME280;10487;53.320;8.672;2023-02-28T08:30:34;103018.91;;;2.58;55.20
20656;BME280;10487;53.320;8.672;2023-02-28T08:33:36;103018.88;;;2.62;55.18
20656;BME280;10487;53.320;8.672;2023-02-28T08:36:38;103018.84;;;2.67;55.07
20656;BME280;10487;53.320;8.672;2023-02-28T08:39:41;103011.81;;;2.72;54.94
20656;BME280;10487;53.320;8.672;2023-02-28T08:42:42;103014.41;;;2.79;55.37
20656;BME280;10487;53.320;8.672;2023-02-28T08:45:44;103014.31;;;2.92;54.84
20656;BME280;10487;53.320;8.672;2023-02-28T08:48:45;103021.28;;;3.05;55.04
20656;BME280;10487;53.320;8.672;2023-02-28T08:51:47;103018.56;;;3.18;55.19
20656;BME280;10487;53.320;8.672;2023-02-28T08:54:49;103025.56;;;3.28;55.05
20656;BME280;10487;53.320;8.672;2023-02-28T08:57:50;103018.44;;;3.36;54.80
20656;BME280;10487;53.320;8.672;2023-02-28T09:00:52;103027.19;;;3.43;54.88
20656;BME280;10487;53.320;8.672;2023-02-28T09:03:55;103024.50;;;3.48;54.66
20656;BME280;10487;53.320;8.672;2023-02-28T09:07:02;103026.22;;;3.52;54.77
20656;BME280;10487;53.320;8.672;2023-02-28T09:10:04;103020.91;;;3.56;54.61
20656;BME280;10487;53.320;8.672;2023-02-28T09:13:06;103025.31;;;3.57;54.78
20656;BME280;10487;53.320;8.672;2023-02-28T09:16:11;103024.38;;;3.61;54.72
20656;BME280;10487;53.320;8.672;2023-02-28T09:19:13;103024.31;;;3.69;54.80
20656;BME280;10487;53.320;8.672;2023-02-28T09:22:15;103029.53;;;3.78;54.58
20656;BME280;10487;53.320;8.672;2023-02-28T09:25:18;103019.75;;;3.87;54.62
20656;BME280;10487;53.320;8.672;2023-02-28T09:28:20;103021.38;;;3.99;54.59
20656;BME280;10487;53.320;8.672;2023-02-28T09:31:25;103022.97;;;4.13;54.47
20656;BME280;10487;53.320;8.672;2023-02-28T09:34:28;103025.44;;;4.30;54.46
20656;BME280;10487;53.320;8.672;2023-02-28T09:37:32;103021.72;;;4.43;54.23
20656;BME280;10487;53.320;8.672;2023-02-28T09:40:39;103026.84;;;4.60;54.26
20656;BME280;10487;53.320;8.672;2023-02-28T09:43:58;103020.50;;;4.71;54.02
20656;BME280;10487;53.320;8.672;2023-02-28T09:47:08;103022.09;;;4.83;53.95
20656;BME280;10487;53.320;8.672;2023-02-28T09:50:35;103029.84;;;4.95;54.03
20656;BME280;10487;53.320;8.672;2023-02-28T09:53:38;103025.25;;;5.08;53.91
20656;BME280;10487;53.320;8.672;2023-02-28T09:56:41;103032.19;;;5.18;53.86
20656;BME280;10487;53.320;8.672;2023-02-28T10:06:20;103034.53;;;5.37;53.66
20656;BME280;10487;53.320;8.672;2023-02-28T10:09:30;103042.34;;;5.45;53.66
20656;BME280;10487;53.320;8.672;2023-02-28T10:12:35;103028.97;;;5.53;53.52
20656;BME280;10487;53.320;8.672;2023-02-28T10:15:39;103028.81;;;5.63;53.48
20656;BME280;10487;53.320;8.672;2023-02-28T10:18:48;103027.78;;;5.70;53.42
20656;BME280;10487;53.320;8.672;2023-02-28T10:22:09;103028.53;;;5.77;53.14
20656;BME280;10487;53.320;8.672;2023-02-28T10:25:22;103032.78;;;5.87;53.28
20656;BME280;10487;53.320;8.672;2023-02-28T10:28:25;103030.03;;;5.93;53.19
20656;BME280;10487;53.320;8.672;2023-02-28T10:31:27;103044.16;;;5.93;53.07
20656;BME280;10487;53.320;8.672;2023-02-28T10:34:29;103042.44;;;5.91;53.25
20656;BME280;10487;53.320;8.672;2023-02-28T10:37:31;103033.28;;;6.07;53.32
20656;BME280;10487;53.320;8.672;2023-02-28T10:40:35;103035.66;;;6.22;53.10
20656;BME280;10487;53.320;8.672;2023-02-28T10:43:38;103031.88;;;6.34;52.90
20656;BME280;10487;53.320;8.672;2023-02-28T10:46:41;103031.88;;;6.34;52.80
20656;BME280;10487;53.320;8.672;2023-02-28T10:49:48;103039.88;;;6.32;52.82
20656;BME280;10487;53.320;8.672;2023-02-28T10:52:50;103039.88;;;6.32;52.73
20656;BME280;10487;53.320;8.672;2023-02-28T10:56:02;103035.44;;;6.33;52.99
20656;BME280;10487;53.320;8.672;2023-02-28T11:02:35;103033.78;;;6.27;52.87
20656;BME280;10487;53.320;8.672;2023-02-28T11:05:39;103028.38;;;6.32;52.89
20656;BME280;10487;53.320;8.672;2023-02-28T11:08:45;103033.50;;;6.41;52.63
20656;BME280;10487;53.320;8.672;2023-02-28T11:11:48;103027.34;;;6.39;52.65
20656;BME280;10487;53.320;8.672;2023-02-28T11:14:56;103030.09;;;6.36;52.65
20656;BME280;10487;53.320;8.672;2023-02-28T11:21:01;103026.19;;;6.52;52.52
20656;BME280;10487;53.320;8.672;2023-02-28T11:24:12;103024.31;;;6.57;52.55
20656;BME280;10487;53.320;8.672;2023-02-28T11:27:51;103024.09;;;6.69;52.58
20656;BME280;10487;53.320;8.672;2023-02-28T11:34:23;103023.78;;;6.83;52.51
20656;BME280;10487;53.320;8.672;2023-02-28T11:37:27;103019.94;;;6.96;52.30
20656;BME280;10487;53.320;8.672;2023-02-28T11:41:02;103025.06;;;7.05;52.38
20656;BME280;10487;53.320;8.672;2023-02-28T11:50:36;103013.19;;;7.19;52.08
20656;BME280;10487;53.320;8.672;2023-02-28T11:57:52;103004.44;;;6.78;52.03
20656;BME280;10487;53.320;8.672;2023-02-28T12:04:23;102994.72;;;6.77;52.16
20656;BME280;10487;53.320;8.672;2023-02-28T12:07:58;102991.25;;;6.75;52.09
20656;BME280;10487;53.320;8.672;2023-02-28T12:14:25;102977.28;;;6.63;52.15
20656;BME280;10487;53.320;8.672;2023-02-28T12:21:00;102966.25;;;6.85;52.18
20656;BME280;10487;53.320;8.672;2023-02-28T12:27:19;102960.81;;;6.91;51.54
20656;BME280;10487;53.320;8.672;2023-02-28T12:30:31;102954.97;;;6.75;51.72
20656;BME280;10487;53.320;8.672;2023-02-28T12:33:42;102956.16;;;6.60;51.77
20656;BME280;10487;53.320;8.672;2023-02-28T12:36:45;102956.44;;;6.48;51.92
20656;BME280;10487;53.320;8.672;2023-02-28T12:39:51;102947.72;;;6.43;51.80
20656;BME280;10487;53.320;8.672;2023-02-28T12:43:04;102943.09;;;6.51;51.79
20656;BME280;10487;53.320;8.672;2023-02-28T12:46:17;102940.97;;;6.67;51.85
20656;BME280;10487;53.320;8.672;2023-02-28T12:49:46;102932.69;;;6.82;51.79
20656;BME280;10487;53.320;8.672;2023-02-28T12:56:36;102927.78;;;7.02;51.31
20656;BME280;10487;53.320;8.672;2023-02-28T13:00:03;102922.41;;;7.05;51.52
20656;BME280;10487;53.320;8.672;2023-02-28T13:09:30;102917.16;;;7.68;51.70
20656;BME280;10487;53.320;8.672;2023-02-28T13:12:32;102918.78;;;7.74;51.25
20656;BME280;10487;53.320;8.672;2023-02-28T13:15:34;102918.38;;;7.57;51.28
20656;BME280;10487;53.320;8.672;2023-02-28T13:18:46;102912.03;;;7.30;51.28
20656;BME280;10487;53.320;8.672;2023-02-28T13:21:48;102911.66;;;7.10;51.57
20656;BME280;10487;53.320;8.672;2023-02-28T13:24:55;102905.78;;;6.96;51.40
20656;BME280;10487;53.320;8.672;2023-02-28T13:27:57;102908.81;;;6.82;51.46
20656;BME280;10487;53.320;8.672;2023-02-28T13:31:04;102913.47;;;6.71;51.26
20656;BME280;10487;53.320;8.672;2023-02-28T13:34:14;102908.47;;;6.57;51.43
20656;BME280;10487;53.320;8.672;2023-02-28T13:40:33;102913.25;;;6.42;51.38
20656;BME280;10487;53.320;8.672;2023-02-28T13:44:21;102912.47;;;6.38;51.59
20656;BME280;10487;53.320;8.672;2023-02-28T13:47:45;102911.41;;;6.45;51.46
20656;BME280;10487;53.320;8.672;2023-02-28T13:50:52;102920.91;;;6.55;51.30
20656;BME280;10487;53.320;8.672;2023-02-28T13:54:04;102905.78;;;6.59;51.13
20656;BME280;10487;53.320;8.672;2023-02-28T14:00:51;102898.50;;;6.67;51.06
20656;BME280;10487;53.320;8.672;2023-02-28T14:04:21;102887.81;;;6.73;50.94
20656;BME280;10487;53.320;8.672;2023-02-28T14:07:45;102886.25;;;6.61;50.69
20656;BME280;10487;53.320;8.672;2023-02-28T14:11:06;102883.13;;;6.46;50.87
20656;BME280;10487;53.320;8.672;2023-02-28T14:14:52;102886.00;;;6.35;50.85
20656;BME280;10487;53.320;8.672;2023-02-28T14:17:31;102880.09;;;6.23;50.79
20656;BME280;10487;53.320;8.672;2023-02-28T14:20:33;102883.00;;;6.11;50.87
20656;BME280;10487;53.320;8.672;2023-02-28T14:23:50;102883.91;;;6.10;50.95
20656;BME280;10487;53.320;8.672;2023-02-28T14:27:00;102889.09;;;6.14;50.93
20656;BME280;10487;53.320;8.672;2023-02-28T14:36:25;102885.06;;;5.98;50.65
20656;BME280;10487;53.320;8.672;2023-02-28T14:39:28;102889.56;;;5.93;50.63
20656;BME280;10487;53.320;8.672;2023-02-28T14:42:37;102887.19;;;5.81;50.75
20656;BME280;10487;53.320;8.672;2023-02-28T14:45:39;102896.94;;;5.77;50.83
20656;BME280;10487;53.320;8.672;2023-02-28T14:48:40;102902.25;;;5.77;50.74
20656;BME280;10487;53.320;8.672;2023-02-28T14:51:48;102903.72;;;5.93;50.88
20656;BME280;10487;53.320;8.672;2023-02-28T14:58:02;102909.91;;;5.92;50.62
20656;BME280;10487;53.320;8.672;2023-02-28T15:01:10;102897.00;;;5.74;50.68
20656;BME280;10487;53.320;8.672;2023-02-28T15:04:21;102899.81;;;5.67;50.76
20656;BME280;10487;53.320;8.672;2023-02-28T15:07:24;102899.09;;;5.57;50.51
20656;BME280;10487;53.320;8.672;2023-02-28T15:10:30;102900.28;;;5.43;50.59
20656;BME280;10487;53.320;8.672;2023-02-28T15:13:48;102897.84;;;5.32;50.65
20656;BME280;10487;53.320;8.672;2023-02-28T15:17:00;102911.13;;;5.27;50.72
20656;BME280;10487;53.320;8.672;2023-02-28T15:20:03;102905.09;;;5.21;50.59
20656;BME280;10487;53.320;8.672;2023-02-28T15:23:05;102906.06;;;5.15;50.60
20656;BME280;10487;53.320;8.672;2023-02-28T15:26:12;102899.97;;;5.09;50.59
20656;BME280;10487;53.320;8.672;2023-02-28T15:29:19;102893.88;;;5.04;50.55
20656;BME280;10487;53.320;8.672;2023-02-28T15:32:30;102895.69;;;5.00;50.58
20656;BME280;10487;53.320;8.672;2023-02-28T15:35:33;102892.25;;;4.95;50.67
20656;BME280;10487;53.320;8.672;2023-02-28T15:38:35;102882.59;;;4.94;50.65
20656;BME280;10487;53.320;8.672;2023-02-28T15:41:37;102892.16;;;5.01;50.67
20656;BME280;10487;53.320;8.672;2023-02-28T15:44:39;102891.25;;;5.02;50.57
20656;BME280;10487;53.320;8.672;2023-02-28T15:47:45;102891.25;;;5.02;50.51
20656;BME280;10487;53.320;8.672;2023-02-28T15:50:51;102884.31;;;4.97;50.38
20656;BME280;10487;53.320;8.672;2023-02-28T15:54:00;102889.69;;;4.91;50.45
20656;BME280;10487;53.320;8.672;2023-02-28T15:57:05;102885.44;;;4.81;50.45
20656;BME280;10487;53.320;8.672;2023-02-28T16:00:13;102879.47;;;4.69;50.60
20656;BME280;10487;53.320;8.672;2023-02-28T16:03:38;102879.53;;;4.65;50.62
20656;BME280;10487;53.320;8.672;2023-02-28T16:06:44;102880.38;;;4.67;50.57
20656;BME280;10487;53.320;8.672;2023-02-28T16:09:46;102870.72;;;4.63;50.57
20656;BME280;10487;53.320;8.672;2023-02-28T16:12:49;102881.38;;;4.58;50.49
20656;BME280;10487;53.320;8.672;2023-02-28T16:15:51;102870.88;;;4.54;50.54
20656;BME280;10487;53.320;8.672;2023-02-28T16:18:53;102872.69;;;4.52;50.71
20656;BME280;10487;53.320;8.672;2023-02-28T16:21:54;102872.69;;;4.50;50.64
20656;BME280;10487;53.320;8.672;2023-02-28T16:24:56;102868.31;;;4.48;50.61
20656;BME280;10487;53.320;8.672;2023-02-28T16:27:58;102865.75;;;4.45;50.61
20656;BME280;10487;53.320;8.672;2023-02-28T16:31:04;102876.34;;;4.40;50.60
20656;BME280;10487;53.320;8.672;2023-02-28T16:34:06;102877.28;;;4.38;50.70
20656;BME280;10487;53.320;8.672;2023-02-28T16:37:12;102875.59;;;4.35;50.68
20656;BME280;10487;53.320;8.672;2023-02-28T16:40:19;102877.41;;;4.30;50.67
20656;BME280;10487;53.320;8.672;2023-02-28T16:43:23;102878.38;;;4.25;50.65
20656;BME280;10487;53.320;8.672;2023-02-28T16:46:35;102876.66;;;4.21;50.80
20656;BME280;10487;53.320;8.672;2023-02-28T16:49:37;102879.38;;;4.15;50.84
20656;BME280;10487;53.320;8.672;2023-02-28T16:52:39;102881.22;;;4.09;50.88
20656;BME280;10487;53.320;8.672;2023-02-28T16:55:41;102883.94;;;4.03;50.82
20656;BME280;10487;53.320;8.672;2023-02-28T16:58:43;102887.53;;;3.96;50.74
20656;BME280;10487;53.320;8.672;2023-02-28T17:01:45;102894.69;;;3.88;50.76
20656;BME280;10487;53.320;8.672;2023-02-28T17:04:47;102891.28;;;3.80;50.72
20656;BME280;10487;53.320;8.672;2023-02-28T17:07:49;102899.28;;;3.71;51.04
20656;BME280;10487;53.320;8.672;2023-02-28T17:10:50;102904.66;;;3.65;50.92
20656;BME280;10487;53.320;8.672;2023-02-28T17:13:52;102893.31;;;3.56;50.99
20656;BME280;10487;53.320;8.672;2023-02-28T17:16:55;102902.19;;;3.47;50.98
20656;BME280;10487;53.320;8.672;2023-02-28T17:19:56;102903.16;;;3.40;51.13
20656;BME280;10487;53.320;8.672;2023-02-28T17:22:58;102908.50;;;3.32;51.04
20656;BME280;10487;53.320;8.672;2023-02-28T17:25:59;102910.31;;;3.26;51.13
20656;BME280;10487;53.320;8.672;2023-02-28T17:29:01;102915.66;;;3.18;51.15
20656;BME280;10487;53.320;8.672;2023-02-28T17:32:03;102918.31;;;3.14;50.96
20656;BME280;10487;53.320;8.672;2023-02-28T17:35:17;102917.47;;;3.09;50.75
20656;BME280;10487;53.320;8.672;2023-02-28T17:38:19;102917.56;;;3.00;51.12
20656;BME280;10487;53.320;8.672;2023-02-28T17:41:21;102926.41;;;2.93;50.75
20656;BME280;10487;53.320;8.672;2023-02-28T17:44:24;102931.75;;;2.83;51.18
20656;BME280;10487;53.320;8.672;2023-02-28T17:47:26;102927.41;;;2.75;51.15
20656;BME280;10487;53.320;8.672;2023-02-28T17:50:27;102926.59;;;2.68;51.24
20656;BME280;10487;53.320;8.672;2023-02-28T17:53:29;102924.88;;;2.61;51.21